Time;durP1;ratioP1;P1;durP2;ratioP2;P2;SDS_P1;SDS_P2;PMS_P1;PMS_P2;Temp;Humidity;BMP_temperature;BMP_pressure;BME280_temperature;BME280_humidity;BME280_pressure;Samples;Min_cycle;Max_cycle;Signal;HPM_P1;HPM_P2
2023/10/12 00:00:24;;;;;;;11.60;5.78;;;;;;;17.03;70.00;98330.31;5023832;28;20477;-83
2023/10/12 00:02:52;;;;;;;11.77;5.07;;;;;;;17.07;70.10;98342.09;5008031;28;20036;-84
2023/10/12 00:05:18;;;;;;;9.50;6.15;;;;;;;17.04;69.97;98337.28;5023524;28;20036;-83
2023/10/12 00:07:46;;;;;;;14.00;5.20;;;;;;;17.06;70.41;98346.66;5033373;28;20080;-84
2023/10/12 00:12:44;;;;;;;9.63;5.47;;;;;;;17.09;70.38;98339.88;5030480;28;20025;-83
2023/10/12 00:15:45;;;;;;;14.00;5.95;;;;;;;17.14;70.31;98342.47;5028732;28;20112;-84
2023/10/12 00:18:04;;;;;;;12.85;5.47;;;;;;;17.03;70.10;98333.00;5027259;28;20041;-84
2023/10/12 00:22:58;;;;;;;11.30;6.10;;;;;;;16.97;70.13;98323.44;5033462;28;20029;-84
2023/10/12 00:25:25;;;;;;;11.15;6.32;;;;;;;16.96;71.04;98346.91;5035504;28;20087;-83
2023/10/12 00:27:51;;;;;;;11.40;6.78;;;;;;;17.14;70.13;98334.38;5019116;28;20110;-84
2023/10/12 00:30:17;;;;;;;11.27;5.93;;;;;;;17.05;70.39;98331.59;5015395;28;20026;-83
2023/10/12 00:32:43;;;;;;;11.00;5.43;;;;;;;17.11;70.72;98343.06;5031009;28;20021;-83
2023/10/12 00:35:13;;;;;;;10.73;5.60;;;;;;;16.94;71.19;98329.41;4995099;28;20060;-83
2023/10/12 00:37:41;;;;;;;14.68;6.07;;;;;;;17.06;70.96;98346.66;5000850;28;20060;-83
2023/10/12 00:40:26;;;;;;;12.10;6.13;;;;;;;16.98;70.71;98333.91;5034487;28;20474;-84
2023/10/12 00:42:53;;;;;;;9.63;5.90;;;;;;;17.04;71.15;98338.09;5015178;28;20057;-84
2023/10/12 00:45:28;;;;;;;10.68;6.45;;;;;;;16.96;71.23;98330.72;5017817;28;20321;-84
2023/10/12 00:47:54;;;;;;;15.00;5.78;;;;;;;16.92;70.76;98323.53;5001796;28;20041;-84
2023/10/12 00:50:22;;;;;;;12.48;5.18;;;;;;;17.03;70.85;98338.41;5034806;28;20029;-84
2023/10/12 00:52:57;;;;;;;16.27;5.85;;;;;;;16.96;71.35;98333.41;5033569;28;20028;-83
2023/10/12 00:55:42;;;;;;;11.70;5.88;;;;;;;17.02;70.71;98334.91;5017003;28;20061;-84
2023/10/12 00:58:11;;;;;;;15.82;7.20;;;;;;;17.05;70.98;98331.59;5032056;28;20980;-84
2023/10/12 01:00:45;;;;;;;10.20;5.47;;;;;;;16.68;70.94;98269.88;5036510;28;20021;-84
2023/10/12 01:03:28;;;;;;;13.50;5.70;;;;;;;16.80;71.15;98290.88;5014971;28;20029;-84
2023/10/12 01:08:42;;;;;;;13.52;5.97;;;;;;;16.82;70.93;98281.41;5035958;28;20036;-84
2023/10/12 01:11:20;;;;;;;13.73;6.30;;;;;;;16.99;71.54;98323.94;5031402;28;20515;-84
2023/10/12 01:13:54;;;;;;;13.95;6.78;;;;;;;16.90;71.79;98310.38;5034202;28;20053;-85
2023/10/12 01:16:22;;;;;;;9.90;5.25;;;;;;;17.13;70.83;98324.69;5021116;28;20035;-84
2023/10/12 01:19:00;;;;;;;11.15;6.35;;;;;;;17.06;71.01;98310.81;5033013;28;20044;-84
2023/10/12 01:21:28;;;;;;;9.77;4.88;;;;;;;16.77;71.61;98295.00;5029468;28;20032;-84
2023/10/12 01:24:01;;;;;;;14.82;6.10;;;;;;;16.69;71.79;98302.97;5001026;28;20034;-84
2023/10/12 01:26:26;;;;;;;8.23;5.63;;;;;;;16.90;71.39;98326.53;5032854;28;20052;-84
2023/10/12 01:28:52;;;;;;;12.93;6.18;;;;;;;16.97;71.43;98312.66;5008507;28;20029;-84
2023/10/12 01:31:27;;;;;;;11.70;5.90;;;;;;;16.75;71.81;98291.03;5015589;28;20402;-84
2023/10/12 01:33:55;;;;;;;12.25;6.22;;;;;;;16.87;71.99;98302.06;5003261;28;20111;-83
2023/10/12 01:36:22;;;;;;;11.55;6.00;;;;;;;16.81;71.02;98273.63;5029713;28;20436;-83
2023/10/12 01:38:48;;;;;;;9.80;6.32;;;;;;;17.02;70.98;98297.16;5027292;28;20033;-83
2023/10/12 01:41:24;;;;;;;11.45;4.93;;;;;;;16.98;71.28;98296.16;5029117;28;20029;-85
2023/10/12 01:43:49;;;;;;;14.50;6.43;;;;;;;16.94;71.16;98294.38;5015289;28;20026;-83
2023/10/12 01:46:21;;;;;;;14.30;6.82;;;;;;;16.79;71.40;98276.63;5008769;28;20105;-84
2023/10/12 01:48:49;;;;;;;10.65;6.22;;;;;;;16.92;71.61;98310.06;5012361;28;20382;-84
2023/10/12 01:51:17;;;;;;;12.27;6.28;;;;;;;16.99;71.32;98305.06;5023657;28;20539;-84
2023/10/12 01:53:42;;;;;;;12.18;5.88;;;;;;;16.98;71.43;98316.94;5031106;28;20495;-83
2023/10/12 01:56:11;;;;;;;11.55;5.50;;;;;;;16.69;72.51;98286.81;5026845;28;20109;-83
2023/10/12 01:58:40;;;;;;;15.38;6.35;;;;;;;16.77;72.90;98294.22;5034346;28;20091;-83
2023/10/12 02:01:07;;;;;;;12.30;5.85;;;;;;;16.84;71.96;98291.91;5033552;28;20018;-83
2023/10/12 02:03:37;;;;;;;13.90;6.20;;;;;;;16.79;71.84;98273.94;5018377;28;20037;-83
2023/10/12 02:06:05;;;;;;;14.73;6.20;;;;;;;16.71;72.68;98292.72;5032968;28;20119;-83
2023/10/12 02:08:34;;;;;;;13.40;5.63;;;;;;;16.69;72.41;98279.53;5031770;28;20032;-83
2023/10/12 02:13:47;;;;;;;11.98;5.45;;;;;;;16.77;71.92;98310.38;5031278;28;20079;-84
2023/10/12 02:16:15;;;;;;;15.43;6.18;;;;;;;16.91;71.76;98309.25;4995461;28;20034;-83
2023/10/12 02:18:42;;;;;;;11.63;5.97;;;;;;;16.77;72.60;98310.38;5022377;28;20029;-83
2023/10/12 02:21:11;;;;;;;14.25;6.03;;;;;;;16.71;73.00;98303.50;5032153;28;20025;-83
2023/10/12 02:23:39;;;;;;;12.63;6.07;;;;;;;16.65;73.30;98296.59;5014252;28;20045;-83
2023/10/12 02:28:53;;;;;;;14.07;6.22;;;;;;;16.45;74.10;98270.84;5027703;28;20037;-83
2023/10/12 02:31:20;;;;;;;12.02;6.07;;;;;;;16.81;72.27;98279.03;5012902;28;20567;-84
2023/10/12 02:33:45;;;;;;;9.45;5.55;;;;;;;16.90;71.99;98296.09;5011109;28;20040;-83
2023/10/12 02:36:12;;;;;;;11.85;5.93;;;;;;;16.78;72.44;98304.69;5016165;28;20033;-83
2023/10/12 02:38:41;;;;;;;9.30;5.85;;;;;;;16.79;72.10;98292.81;5001463;28;20083;-83
2023/10/12 02:41:12;;;;;;;6.72;5.05;;;;;;;16.85;71.96;98296.19;5008714;28;20037;-83
2023/10/12 02:43:39;;;;;;;14.20;6.10;;;;;;;16.70;72.89;98300.00;5025233;28;20037;-83
2023/10/12 02:46:11;;;;;;;15.73;6.45;;;;;;;16.78;73.01;98301.19;5026403;28;20124;-83
2023/10/12 02:48:37;;;;;;;9.05;4.75;;;;;;;16.71;72.54;98295.41;5028703;28;20030;-82
2023/10/12 02:51:06;;;;;;;9.75;5.78;;;;;;;16.57;72.76;98276.56;5030728;28;20445;-83
2023/10/12 02:53:34;;;;;;;14.35;6.05;;;;;;;16.68;73.76;98301.41;5016793;28;20029;-83
2023/10/12 02:56:01;;;;;;;9.02;5.70;;;;;;;16.60;73.55;98288.63;5031621;28;20436;-83
2023/10/12 02:58:27;;;;;;;13.50;6.32;;;;;;;16.64;72.80;98300.41;5011662;28;20030;-83
2023/10/12 03:00:56;;;;;;;16.33;6.22;;;;;;;16.60;73.40;98318.28;5028861;28;20028;-83
2023/10/12 03:03:27;;;;;;;10.57;5.60;;;;;;;16.63;72.62;98296.91;5027067;28;20055;-84
2023/10/12 03:05:58;;;;;;;14.73;6.70;;;;;;;16.56;73.76;98328.03;5015283;28;20460;-84
2023/10/12 03:08:24;;;;;;;10.15;5.28;;;;;;;16.61;73.10;98350.31;5030355;28;20022;-83
2023/10/12 03:13:34;;;;;;;12.23;5.97;;;;;;;16.52;72.64;98346.72;5033199;28;20112;-83
2023/10/12 03:16:08;;;;;;;10.18;5.72;;;;;;;16.60;72.57;98356.00;5034342;28;20590;-83
2023/10/12 03:18:34;;;;;;;12.23;5.68;;;;;;;16.52;72.92;98345.91;5035091;28;20033;-83
2023/10/12 03:21:05;;;;;;;10.68;5.95;;;;;;;16.61;72.88;98358.41;5014147;28;20060;-83
2023/10/12 03:23:33;;;;;;;11.88;5.57;;;;;;;16.56;72.91;98363.06;4999254;28;20063;-82
2023/10/12 03:26:04;;;;;;;17.75;6.95;;;;;;;16.40;75.46;98368.72;5015132;28;20022;-83
2023/10/12 03:28:30;;;;;;;16.25;6.85;;;;;;;16.54;73.58;98376.84;5003811;28;20061;-83
2023/10/12 03:31:14;;;;;;;11.10;5.55;;;;;;;16.48;73.84;98375.31;5018367;28;20026;-83
2023/10/12 03:33:46;;;;;;;13.18;6.20;;;;;;;16.58;74.40;98388.63;5036221;28;20025;-83
2023/10/12 03:36:22;;;;;;;8.02;5.85;;;;;;;16.63;73.80;98393.91;5031922;28;20045;-83
2023/10/12 03:39:14;;;;;;;14.55;6.43;;;;;;;16.56;74.43;98406.97;5018229;28;20041;-82
2023/10/12 03:47:14;;;;;;;12.85;6.65;;;;;;;16.32;75.75;98390.94;5032423;28;20484;-82
2023/10/12 03:52:34;;;;;;;16.05;7.05;;;;;;;16.28;77.70;98433.03;5015732;28;20072;-82
2023/10/12 03:57:50;;;;;;;16.65;7.18;;;;;;;16.38;77.51;98446.31;5031907;28;20034;-82
2023/10/12 04:08:17;;;;;;;16.45;8.27;;;;;;;16.21;79.49;98448.78;5032416;28;20512;-81
2023/10/12 04:18:32;;;;;;;17.55;8.68;;;;;;;16.20;80.21;98479.50;5027938;28;20099;-81
2023/10/12 04:20:58;;;;;;;17.00;8.02;;;;;;;15.95;81.00;98452.16;5010165;28;20037;-81
2023/10/12 04:29:21;;;;;;;15.38;7.50;;;;;;;16.14;80.87;98472.56;5023014;28;20371;-81
2023/10/12 04:31:40;;;;;;;14.63;7.30;;;;;;;16.27;80.16;98471.06;5021923;28;20489;-81
2023/10/12 04:34:10;;;;;;;16.90;8.43;;;;;;;16.10;80.50;98463.50;5025856;28;20042;-82
2023/10/12 04:41:38;;;;;;;19.00;8.52;;;;;;;16.22;80.56;98463.84;5026834;28;20143;-82
2023/10/12 04:46:59;;;;;;;18.52;8.68;;;;;;;16.06;81.54;98446.34;5026702;28;20091;-81
2023/10/12 04:49:54;;;;;;;14.43;7.65;;;;;;;16.15;80.97;98451.84;5024326;28;20026;-81
2023/10/12 04:52:24;;;;;;;14.23;7.47;;;;;;;16.13;80.98;98441.38;5026418;28;20046;-80
2023/10/12 04:57:32;;;;;;;13.32;7.70;;;;;;;16.18;81.60;98465.53;5010019;28;20386;-81
2023/10/12 05:00:24;;;;;;;17.92;7.85;;;;;;;16.31;80.78;98470.16;5019927;28;20030;-81
2023/10/12 05:07:53;;;;;;;12.15;7.72;;;;;;;16.03;81.02;98481.13;5031751;28;20027;-81
2023/10/12 05:10:28;;;;;;;19.08;8.20;;;;;;;15.75;82.34;98467.50;5031175;28;20116;-80
2023/10/12 05:13:06;;;;;;;12.55;7.93;;;;;;;15.77;82.49;98482.59;5029407;28;20060;-81
2023/10/12 05:15:42;;;;;;;17.50;7.68;;;;;;;15.81;82.61;98480.91;5022392;28;20064;-81
2023/10/12 05:18:13;;;;;;;12.25;7.38;;;;;;;15.79;81.79;98464.25;5029058;28;20132;-80
2023/10/12 05:20:42;;;;;;;16.58;8.05;;;;;;;15.90;82.16;98484.56;5024156;28;20040;-81
2023/10/12 05:23:08;;;;;;;13.77;7.38;;;;;;;15.91;81.84;98476.19;5027478;28;20091;-80
2023/10/12 05:28:21;;;;;;;15.10;7.65;;;;;;;15.80;81.97;98488.19;5023637;28;20149;-80
2023/10/12 05:30:55;;;;;;;16.27;8.23;;;;;;;15.81;81.94;98473.66;5032920;28;20026;-81
2023/10/12 05:35:59;;;;;;;17.77;7.15;;;;;;;15.72;82.37;98486.16;5013034;28;20644;-81
2023/10/12 05:38:34;;;;;;;14.20;7.47;;;;;;;15.62;81.66;98464.75;5016063;28;20033;-81
2023/10/12 05:41:00;;;;;;;17.65;7.63;;;;;;;15.65;81.65;98474.94;5016453;28;20052;-81
2023/10/12 05:43:29;;;;;;;16.63;7.72;;;;;;;15.72;82.24;98473.50;4994790;28;20417;-81
2023/10/12 05:45:54;;;;;;;13.40;7.55;;;;;;;15.81;81.63;98489.78;5009221;28;20481;-81
2023/10/12 05:48:20;;;;;;;10.93;6.38;;;;;;;15.89;81.10;98478.34;5030957;28;20021;-80
2023/10/12 05:50:49;;;;;;;8.65;6.22;;;;;;;15.91;80.90;98486.94;5028603;28;20612;-81
2023/10/12 05:53:16;;;;;;;17.02;7.50;;;;;;;15.97;80.68;98499.22;5010927;28;20501;-80
2023/10/12 05:55:43;;;;;;;14.50;7.03;;;;;;;16.01;80.62;98504.84;5027050;28;20082;-81
2023/10/12 05:58:11;;;;;;;16.23;6.93;;;;;;;15.98;80.71;98487.38;5029200;28;20025;-81
2023/10/12 06:00:44;;;;;;;11.90;6.60;;;;;;;15.85;81.71;98496.19;5028854;28;20083;-81
2023/10/12 06:03:15;;;;;;;11.63;6.90;;;;;;;15.90;81.28;98490.72;5019349;28;20431;-81
2023/10/12 06:05:44;;;;;;;13.98;7.07;;;;;;;15.75;81.62;98490.94;5026424;28;20033;-81
2023/10/12 06:08:10;;;;;;;13.05;7.18;;;;;;;15.98;81.45;98506.22;5007912;28;20446;-81
2023/10/12 06:10:42;;;;;;;12.50;6.57;;;;;;;16.00;81.33;98503.22;5021681;28;20095;-81
2023/10/12 06:13:09;;;;;;;10.93;6.57;;;;;;;15.66;82.13;98490.78;5029704;28;20473;-81
2023/10/12 06:15:40;;;;;;;13.05;6.95;;;;;;;15.93;81.80;98492.03;5026700;28;20032;-81
2023/10/12 06:18:10;;;;;;;14.45;6.57;;;;;;;15.87;81.66;98517.41;4997461;28;20104;-81
2023/10/12 06:20:40;;;;;;;12.85;7.30;;;;;;;15.95;81.99;98509.50;5028222;28;20056;-81
2023/10/12 06:23:08;;;;;;;11.98;6.70;;;;;;;15.80;82.32;98515.09;4997408;28;20037;-81
2023/10/12 06:25:38;;;;;;;10.48;6.50;;;;;;;15.92;82.08;98515.47;5022675;28;20045;-81
2023/10/12 06:28:13;;;;;;;15.18;7.55;;;;;;;15.80;81.80;98511.59;5022371;28;20091;-81
2023/10/12 06:30:50;;;;;;;13.80;6.53;;;;;;;15.90;82.27;98539.16;5005940;28;20026;-81
2023/10/12 06:33:17;;;;;;;12.10;7.53;;;;;;;15.83;82.73;98541.44;5022929;28;20045;-81
2023/10/12 06:35:59;;;;;;;10.48;7.03;;;;;;;15.86;82.54;98534.69;5027852;28;20056;-81
2023/10/12 06:46:20;;;;;;;16.88;7.18;;;;;;;15.68;83.05;98553.19;5020217;28;20445;-81
2023/10/12 06:48:46;;;;;;;18.92;8.23;;;;;;;15.89;83.04;98569.06;5010853;28;20067;-81
2023/10/12 06:51:15;;;;;;;19.42;7.32;;;;;;;15.86;83.37;98564.28;5028214;28;20037;-81
2023/10/12 06:53:44;;;;;;;9.70;6.22;;;;;;;15.73;83.25;98566.56;5029945;28;20059;-81
2023/10/12 06:59:13;;;;;;;10.80;6.72;;;;;;;15.92;83.05;98584.66;5030148;28;20033;-81
2023/10/12 07:01:39;;;;;;;13.35;6.57;;;;;;;15.86;83.36;98585.81;5030218;28;20029;-80
2023/10/12 07:04:19;;;;;;;12.40;6.93;;;;;;;15.77;83.38;98590.22;5025492;28;20029;-81
2023/10/12 07:07:00;;;;;;;13.93;6.95;;;;;;;15.63;83.73;98587.44;5025504;28;20432;-80
2023/10/12 07:09:38;;;;;;;19.83;7.20;;;;;;;15.72;83.86;98591.09;5021277;28;20052;-81
2023/10/12 07:12:15;;;;;;;9.70;6.82;;;;;;;15.74;83.51;98588.91;5028113;28;20029;-81
2023/10/12 07:14:52;;;;;;;11.55;6.90;;;;;;;15.73;84.18;98587.28;5024685;28;20064;-80
2023/10/12 07:17:18;;;;;;;13.57;6.28;;;;;;;15.65;84.06;98582.56;5021899;28;20052;-81
2023/10/12 07:19:49;;;;;;;10.50;5.85;;;;;;;15.55;84.82;98582.69;5011502;28;20030;-80
2023/10/12 07:22:18;;;;;;;10.20;6.97;;;;;;;15.64;84.79;98583.63;5023065;28;20022;-80
2023/10/12 07:24:45;;;;;;;9.90;5.93;;;;;;;15.70;84.78;98590.59;5014877;28;20428;-81
2023/10/12 07:27:18;;;;;;;12.48;6.47;;;;;;;15.73;84.69;98589.97;5013736;28;20389;-80
2023/10/12 07:29:47;;;;;;;10.80;6.18;;;;;;;15.64;84.74;98594.41;5027740;28;20033;-80
2023/10/12 07:34:58;;;;;;;14.77;6.05;;;;;;;15.66;85.05;98600.31;5016284;28;20060;-81
2023/10/12 07:37:24;;;;;;;9.00;5.38;;;;;;;15.55;85.19;98593.44;5020362;28;20029;-81
2023/10/12 07:39:54;;;;;;;12.95;6.32;;;;;;;15.52;85.96;98596.69;5023572;28;20401;-81
2023/10/12 07:42:26;;;;;;;15.93;6.53;;;;;;;15.59;85.06;98600.66;5019188;28;20120;-81
2023/10/12 07:44:54;;;;;;;11.80;5.68;;;;;;;15.58;85.09;98582.09;5026094;28;20025;-81
2023/10/12 07:47:29;;;;;;;14.70;7.88;;;;;;;15.70;85.49;98604.81;5023442;28;20546;-81
2023/10/12 07:49:57;;;;;;;14.15;8.70;;;;;;;15.74;85.16;98594.28;5029818;28;20025;-81
2023/10/12 07:55:12;;;;;;;14.90;9.68;;;;;;;15.64;85.47;98591.72;5027366;28;20033;-80
2023/10/12 07:57:38;;;;;;;12.82;8.82;;;;;;;15.71;84.99;98600.25;5028546;28;20086;-81
2023/10/12 08:03:05;;;;;;;11.10;7.90;;;;;;;15.79;85.07;98601.50;5023597;28;20026;-80
2023/10/12 08:21:30;;;;;;;9.88;6.88;;;;;;;15.62;85.95;98613.53;5025212;28;20037;-80
2023/10/12 08:23:58;;;;;;;18.63;7.50;;;;;;;15.63;85.86;98622.41;5032044;28;20033;-80
2023/10/12 08:26:47;;;;;;;10.77;6.80;;;;;;;15.47;86.34;98597.56;5029304;28;20117;-80
2023/10/12 08:39:37;;;;;;;10.95;7.55;;;;;;;15.67;85.88;98621.53;5015739;28;20556;-80
2023/10/12 08:42:29;;;;;;;10.35;6.88;;;;;;;15.72;85.75;98631.47;5023803;28;20079;-80
2023/10/12 08:44:58;;;;;;;16.23;7.50;;;;;;;15.63;85.28;98622.41;5016922;28;20083;-80
2023/10/12 08:47:36;;;;;;;10.45;6.55;;;;;;;15.57;85.95;98605.50;5025339;28;20037;-80
2023/10/12 08:50:08;;;;;;;18.55;7.70;;;;;;;15.51;85.99;98617.41;5011741;28;20036;-80
2023/10/12 08:52:38;;;;;;;10.73;6.35;;;;;;;15.60;86.45;98618.41;5029229;28;20037;-80
2023/10/12 08:57:44;;;;;;;10.00;6.28;;;;;;;15.61;86.28;98622.69;5026588;28;20029;-80
2023/10/12 09:02:52;;;;;;;10.43;6.10;;;;;;;15.50;85.61;98602.38;5030992;28;20041;-80
2023/10/12 09:05:30;;;;;;;12.52;6.43;;;;;;;15.59;85.70;98626.75;5028798;28;20033;-80
2023/10/12 09:08:24;;;;;;;15.25;5.63;;;;;;;15.62;86.09;98635.06;5023776;28;20030;-80
2023/10/12 09:13:23;;;;;;;10.07;6.63;;;;;;;15.48;85.82;98615.31;5032168;28;20098;-80
2023/10/12 09:15:56;;;;;;;10.85;6.05;;;;;;;15.60;85.83;98625.66;5013409;28;20069;-80
2023/10/12 09:18:29;;;;;;;12.45;6.82;;;;;;;15.47;86.63;98637.91;5031705;28;20167;-80
2023/10/12 09:36:28;;;;;;;15.43;6.88;;;;;;;15.55;86.18;98641.88;5026393;28;20159;-80
2023/10/12 09:39:00;;;;;;;19.13;7.07;;;;;;;15.65;86.20;98668.66;5012302;28;20117;-80
2023/10/12 09:41:37;;;;;;;11.68;5.93;;;;;;;15.43;86.60;98653.00;5030161;28;20021;-80
2023/10/12 09:44:06;;;;;;;12.90;7.25;;;;;;;15.55;86.34;98658.78;5025127;28;20052;-80
2023/10/12 09:46:34;;;;;;;18.17;7.22;;;;;;;15.57;86.01;98653.16;5029401;28;20033;-80
2023/10/12 09:49:06;;;;;;;12.60;7.13;;;;;;;15.58;86.16;98665.50;5029875;28;20028;-80
2023/10/12 09:51:36;;;;;;;12.93;6.82;;;;;;;15.39;86.84;98660.03;5032466;28;20021;-80
2023/10/12 09:54:15;;;;;;;10.95;6.88;;;;;;;15.49;86.42;98664.50;5001148;28;20033;-80
2023/10/12 09:56:52;;;;;;;11.20;6.93;;;;;;;15.37;86.93;98664.88;5022643;28;20405;-80
2023/10/12 09:59:19;;;;;;;12.10;8.23;;;;;;;15.46;86.48;98665.91;4989668;28;20482;-80
2023/10/12 10:01:49;;;;;;;14.38;7.35;;;;;;;15.45;86.58;98672.34;5026377;28;20057;-80
2023/10/12 10:09:48;;;;;;;15.35;7.18;;;;;;;15.55;86.09;98676.84;5020871;28;20033;-80
2023/10/12 10:12:18;;;;;;;11.82;6.78;;;;;;;15.38;86.38;98660.28;5018666;28;20030;-80
2023/10/12 10:14:47;;;;;;;16.95;7.30;;;;;;;15.29;86.95;98662.00;5004456;28;20041;-80
2023/10/12 10:17:15;;;;;;;12.02;7.15;;;;;;;15.43;87.00;98666.47;5021379;28;20021;-80
2023/10/12 10:19:44;;;;;;;13.15;7.63;;;;;;;15.37;87.11;98675.66;5020404;28;20026;-80
2023/10/12 10:22:14;;;;;;;12.50;7.13;;;;;;;15.50;87.07;98684.97;5021907;28;20379;-80
2023/10/12 10:24:57;;;;;;;12.27;8.43;;;;;;;15.49;86.88;98694.09;5022390;28;20033;-80
2023/10/12 10:27:34;;;;;;;15.00;7.85;;;;;;;15.39;87.28;98678.84;5024624;28;20051;-80
2023/10/12 10:30:28;;;;;;;16.05;8.68;;;;;;;15.45;87.04;98680.44;5041812;28;20017;-80
2023/10/12 10:33:14;;;;;;;15.85;8.75;;;;;;;15.55;86.29;98674.94;5002137;28;20065;-80
2023/10/12 10:36:14;;;;;;;15.68;8.60;;;;;;;15.54;86.79;98681.41;5017193;28;20057;-80
2023/10/12 10:41:56;;;;;;;14.40;9.25;;;;;;;15.50;86.78;98666.13;5028844;28;20029;-81
2023/10/12 10:44:21;;;;;;;16.83;8.88;;;;;;;15.60;86.41;98668.72;5024169;28;20116;-80
2023/10/12 10:46:49;;;;;;;17.63;9.80;;;;;;;15.56;87.08;98681.13;5030092;28;20033;-80
2023/10/12 10:49:16;;;;;;;13.80;8.77;;;;;;;15.58;86.96;98678.94;5030395;28;20033;-80
2023/10/12 10:51:47;;;;;;;14.82;9.25;;;;;;;15.63;86.49;98673.53;5028686;28;20486;-80
2023/10/12 10:54:18;;;;;;;13.48;8.27;;;;;;;15.55;86.93;98658.78;5045086;28;20026;-80
2023/10/12 10:56:47;;;;;;;16.95;8.00;;;;;;;15.67;86.38;98663.78;5026379;28;20555;-80
2023/10/12 10:59:13;;;;;;;18.92;7.93;;;;;;;15.70;85.81;98649.78;5021832;28;20033;-80
2023/10/12 11:01:46;;;;;;;12.45;8.15;;;;;;;15.70;86.63;98653.25;5018582;28;20026;-80
2023/10/12 11:04:18;;;;;;;14.57;8.68;;;;;;;15.87;86.79;98666.25;5014954;28;20131;-80
2023/10/12 11:06:47;;;;;;;15.52;8.68;;;;;;;15.98;87.26;98662.38;5021726;28;20036;-80
2023/10/12 11:09:15;;;;;;;17.67;8.02;;;;;;;16.05;86.99;98660.13;5009960;28;20465;-80
2023/10/12 11:11:49;;;;;;;17.35;8.80;;;;;;;16.21;87.23;98674.19;5029747;28;20392;-80
2023/10/12 11:14:17;;;;;;;12.65;7.68;;;;;;;16.15;87.22;98657.31;5014909;28;20022;-80
2023/10/12 11:16:46;;;;;;;12.70;8.80;;;;;;;16.26;87.14;98664.16;5020945;28;20029;-80
2023/10/12 11:19:12;;;;;;;15.10;8.30;;;;;;;16.26;86.74;98644.50;5011204;28;20033;-80
2023/10/12 11:21:46;;;;;;;18.33;8.75;;;;;;;16.35;86.29;98665.13;5010746;28;20018;-80
2023/10/12 11:24:13;;;;;;;15.85;8.27;;;;;;;16.29;86.55;98657.41;4996291;28;20451;-80
2023/10/12 11:27:11;;;;;;;19.25;9.18;;;;;;;16.42;86.18;98656.69;5019468;28;20104;-80
2023/10/12 11:29:50;;;;;;;14.07;7.78;;;;;;;16.41;86.06;98633.50;5023559;28;20049;-80
2023/10/12 11:32:16;;;;;;;16.00;8.05;;;;;;;16.43;85.89;98639.41;5012420;28;20170;-80
2023/10/12 11:34:45;;;;;;;11.93;7.47;;;;;;;16.52;85.58;98651.16;5030461;28;20022;-80
2023/10/12 11:37:16;;;;;;;15.70;8.57;;;;;;;16.61;84.70;98657.50;5025434;28;20119;-80
2023/10/12 11:39:49;;;;;;;11.50;8.50;;;;;;;16.54;85.06;98661.66;5022741;28;20040;-80
2023/10/12 11:42:14;;;;;;;15.40;7.07;;;;;;;16.48;84.74;98653.63;5025100;28;20048;-80
2023/10/12 11:44:45;;;;;;;14.35;8.05;;;;;;;16.44;85.01;98657.19;5002300;28;20026;-80
2023/10/12 11:47:23;;;;;;;15.05;7.72;;;;;;;16.40;84.91;98650.78;5027368;28;20021;-80
2023/10/12 11:49:55;;;;;;;14.20;7.47;;;;;;;16.49;84.70;98647.13;5022161;28;20044;-80
2023/10/12 11:52:34;;;;;;;12.32;7.07;;;;;;;16.61;84.70;98646.72;5037603;28;20080;-80
2023/10/12 11:55:19;;;;;;;12.63;7.43;;;;;;;16.43;84.51;98640.22;5032477;28;20032;-80
2023/10/12 11:57:54;;;;;;;15.80;7.20;;;;;;;16.43;84.88;98626.75;5034986;28;20366;-80
2023/10/12 12:00:26;;;;;;;16.25;7.60;;;;;;;16.49;84.74;98639.03;5024961;28;20134;-80
2023/10/12 12:02:57;;;;;;;13.05;7.70;;;;;;;16.46;84.36;98641.53;5033510;28;20037;-79
2023/10/12 12:05:25;;;;;;;12.63;7.60;;;;;;;16.46;84.12;98631.56;5029715;28;20065;-80
2023/10/12 12:07:51;;;;;;;18.55;8.15;;;;;;;16.46;84.39;98646.91;5006420;28;20503;-81
2023/10/12 12:10:38;;;;;;;12.93;8.15;;;;;;;16.37;84.63;98636.00;5013146;28;20026;-80
2023/10/12 12:13:04;;;;;;;15.30;7.55;;;;;;;16.42;84.27;98638.59;5023391;28;20021;-80
2023/10/12 12:15:30;;;;;;;15.38;9.27;;;;;;;16.47;83.76;98646.63;5011725;28;20041;-80
2023/10/12 12:17:57;;;;;;;20.52;9.18;;;;;;;16.34;84.12;98623.09;5023368;28;20026;-80
2023/10/12 12:20:23;;;;;;;16.55;8.85;;;;;;;16.62;83.49;98647.53;5020552;28;20406;-80
2023/10/12 12:22:48;;;;;;;15.80;8.90;;;;;;;16.56;83.08;98627.13;5032092;28;20030;-80
2023/10/12 12:28:21;;;;;;;17.80;8.23;;;;;;;16.59;83.36;98640.84;5017076;28;20050;-80
2023/10/12 12:30:55;;;;;;;19.70;9.20;;;;;;;16.58;83.65;98646.53;5026233;28;20034;-80
2023/10/12 12:33:22;;;;;;;14.85;8.57;;;;;;;16.57;83.64;98653.78;5032062;28;20385;-80
2023/10/12 12:35:48;;;;;;;12.27;8.18;;;;;;;16.48;84.09;98632.06;5028296;28;20116;-80
2023/10/12 12:40:52;;;;;;;12.07;7.38;;;;;;;16.43;84.66;98648.28;5030873;28;20155;-80
2023/10/12 12:43:18;;;;;;;14.43;7.38;;;;;;;16.41;84.19;98642.41;5029399;28;20111;-80
2023/10/12 12:45:43;;;;;;;14.65;7.25;;;;;;;16.46;83.84;98644.22;5020496;28;20033;-80
2023/10/12 12:48:08;;;;;;;17.30;8.20;;;;;;;16.32;83.80;98625.28;5030755;28;20068;-80
2023/10/12 12:50:34;;;;;;;15.77;7.50;;;;;;;16.30;84.22;98640.13;4996709;28;20026;-80
2023/10/12 12:52:59;;;;;;;14.43;7.63;;;;;;;16.37;83.48;98635.19;4997016;28;20084;-80
2023/10/12 12:55:30;;;;;;;16.25;7.20;;;;;;;16.33;83.97;98637.69;5013289;28;20030;-80
2023/10/12 12:58:01;;;;;;;20.83;8.13;;;;;;;16.31;84.35;98642.56;5014573;28;20041;-80
2023/10/12 13:00:26;;;;;;;15.05;7.50;;;;;;;16.34;84.41;98646.53;5004828;28;20029;-80
2023/10/12 13:02:52;;;;;;;16.15;7.97;;;;;;;16.32;83.95;98646.03;5025026;28;20503;-80
2023/10/12 13:05:17;;;;;;;15.00;7.32;;;;;;;16.24;83.91;98650.19;5014748;28;20045;-80
2023/10/12 13:07:45;;;;;;;13.10;7.55;;;;;;;16.17;84.70;98640.84;5023158;28;20440;-80
2023/10/12 13:10:11;;;;;;;11.43;6.80;;;;;;;16.11;84.88;98625.84;5014067;28;20575;-80
2023/10/12 13:12:42;;;;;;;13.43;7.20;;;;;;;16.01;85.30;98623.31;5030337;28;20029;-79
2023/10/12 13:15:11;;;;;;;16.48;7.40;;;;;;;15.99;85.72;98626.25;5016163;28;20064;-79
2023/10/12 13:17:37;;;;;;;15.85;8.70;;;;;;;16.03;85.98;98631.88;5027159;28;20053;-79
2023/10/12 13:20:03;;;;;;;20.30;8.07;;;;;;;15.90;86.34;98624.53;5020533;28;20044;-80
2023/10/12 13:22:29;;;;;;;22.58;8.68;;;;;;;15.96;86.06;98631.44;5023025;28;20025;-80
2023/10/12 13:24:56;;;;;;;13.57;8.70;;;;;;;16.08;85.23;98642.56;5006073;28;20038;-80
2023/10/12 13:27:24;;;;;;;15.23;7.97;;;;;;;16.06;85.67;98642.88;5018236;28;20037;-79
2023/10/12 13:29:50;;;;;;;12.98;8.05;;;;;;;16.06;85.78;98647.44;5031798;28;20021;-79
2023/10/12 13:32:18;;;;;;;13.77;7.30;;;;;;;16.10;85.36;98640.38;5031460;28;20026;-80
2023/10/12 13:34:44;;;;;;;13.88;7.85;;;;;;;16.14;85.57;98644.91;5027013;28;20049;-80
2023/10/12 13:37:09;;;;;;;19.98;8.43;;;;;;;16.12;86.21;98639.00;5012189;28;20542;-80
2023/10/12 13:39:34;;;;;;;17.63;8.80;;;;;;;15.69;88.66;98629.31;5010689;28;20623;-80
2023/10/12 13:42:00;;;;;;;15.32;7.80;;;;;;;16.00;86.60;98630.56;5017669;28;20044;-80
2023/10/12 13:44:25;;;;;;;11.65;7.50;;;;;;;15.92;87.22;98631.22;5030865;28;20124;-80
2023/10/12 13:46:51;;;;;;;21.38;8.57;;;;;;;16.16;86.28;98642.72;5020932;28;20621;-80
2023/10/12 13:49:20;;;;;;;12.52;8.13;;;;;;;16.01;86.51;98626.78;5025081;28;20478;-80
2023/10/12 13:51:47;;;;;;;17.30;8.25;;;;;;;16.20;86.18;98637.59;5006428;28;20030;-80
2023/10/12 13:54:14;;;;;;;16.35;8.90;;;;;;;15.96;86.79;98624.16;5030352;28;20030;-80
2023/10/12 13:56:48;;;;;;;16.80;8.65;;;;;;;15.95;87.60;98637.88;5029797;28;20121;-80
2023/10/12 13:59:14;;;;;;;13.35;7.90;;;;;;;16.11;86.10;98623.16;5004800;28;20041;-80
2023/10/12 14:01:40;;;;;;;13.48;7.28;;;;;;;16.03;86.33;98618.44;5031115;28;20025;-80
2023/10/12 14:04:28;;;;;;;14.10;7.72;;;;;;;16.10;86.75;98630.44;5014956;28;20482;-80
2023/10/12 14:06:52;;;;;;;15.55;8.63;;;;;;;16.01;86.99;98626.78;5023488;28;20040;-80
2023/10/12 14:09:22;;;;;;;15.88;8.80;;;;;;;16.04;87.03;98625.41;5014590;28;20770;-80
2023/10/12 14:11:51;;;;;;;15.98;8.88;;;;;;;15.95;86.95;98617.16;5010087;28;20172;-80
2023/10/12 14:14:16;;;;;;;14.93;9.15;;;;;;;16.11;86.99;98626.66;5026869;28;20025;-80